Ironwood, MI

4:04 AM CST on November 27, 2014 (GMT -0600)
Lakeland-Lee Memorial | Change Station
CLOSE
Current Station
Airport
Location: Arbor Vitae,
Elevation: 1627 ft
Nearby Weather Stations
Active Advisory: Lake Effect Snow Warning

Elev 1627 ft 45.93 °N, 89.73 °W | Updated 9 minutes ago

Overcast
Overcast
7 °F
Feels Like -2 °F
N
5
Wind Variable Wind from North

Today
High -- | Low -- °F
--% Chance of Precip.
Yesterday
High -- | Low -- °F
Precip. -- in
7:18 AM 4:17 PM
Waxing Crescent, 28% visible
Pressure 30.25 in
Visibility 10.0 miles
Clouds Mostly Cloudy 3500 ft
Mostly Cloudy 4600 ft
Mostly Cloudy 9500 ft
Windchill -2 °F
Dew Point 4 °F
Humidity 87%
Rainfall 0.00 in
Snow Depth Not available.
UV 0 out of 12
Pollen .10 out of 12
Air Quality Not available.
Flu Activity Not available.
METAR KARV 270955Z AUTO 35004KT 10SM BKN035 BKN046 BKN095 M14/M16 A3025 RMK AO2 T11401157

More Conditions Fewer Conditions

Pressure 30.25 in
Visibility 10.0 miles
Clouds Mostly Cloudy 3500 ft
Mostly Cloudy 4600 ft
Mostly Cloudy 9500 ft
Windchill -2 °F
Dew Point 4 °F
Humidity 87%
Rainfall 0.00 in
Snow Depth Not available.
UV 0 out of 12
Pollen .10 out of 12
Air Quality Not available.
Flu Activity Not available.
METAR KARV 270955Z AUTO 35004KT 10SM BKN035 BKN046 BKN095 M14/M16 A3025 RMK AO2 T11401157

More Conditions Fewer Conditions

10-Day Weather Forecast

Almanac

Astronomy

Nov. 27, 2014 Rise Set
Actual Time
Civil Twilight
Nautical Twilight
Astronomical Twilight
Moon
Length of Visible Light
Length of Day
Tomorrow will be .
, % of the Moon is Illuminated

Today's Extremes

State Highs State Lows

Community

WunderPhotos

Upload Photos

1,773,968 photos uploaded!

WunderBlogs® & News

Nearby

Air Quality

  Air Quality AQ Index Pollutant
Not available.

Snow Depth

Station Depth Elevation

Earthquake Activity

City Distance Mag. Time & Date
Minimum magnitude displayed is 2.5.

Coastal Water Temperatures

Place Temperature

Nearby Weather Stations